Time;durP1;ratioP1;P1;durP2;ratioP2;P2;SDS_P1;SDS_P2;PMS_P1;PMS_P2;Temp;Humidity;BMP_temperature;BMP_pressure;BME280_temperature;BME280_humidity;BME280_pressure;Samples;Min_cycle;Max_cycle;Signal;HPM_P1;HPM_P2
2024/02/27 00:01:16;;;;;;;5.13;2.05;;;10.10;99.90;;;;;;5017739;28;20472;-89
2024/02/27 00:03:41;;;;;;;2.38;1.83;;;10.10;99.90;;;;;;5023313;28;20026;-89
2024/02/27 00:06:07;;;;;;;2.65;1.52;;;10.10;99.90;;;;;;5025417;28;20028;-89
2024/02/27 00:08:33;;;;;;;1.52;1.30;;;10.20;99.90;;;;;;5028002;28;20033;-89
2024/02/27 00:11:02;;;;;;;4.05;1.88;;;10.10;99.90;;;;;;5014603;28;20026;-89
2024/02/27 00:13:27;;;;;;;3.03;1.75;;;10.20;99.90;;;;;;5021420;28;20480;-89
2024/02/27 00:15:53;;;;;;;2.42;1.60;;;10.20;99.90;;;;;;5027505;28;20117;-88
2024/02/27 00:18:18;;;;;;;3.63;2.05;;;10.10;99.90;;;;;;5016188;28;20018;-89
2024/02/27 00:20:44;;;;;;;3.47;2.05;;;10.10;99.90;;;;;;5025703;28;20092;-89
2024/02/27 00:23:11;;;;;;;1.95;1.40;;;10.10;99.90;;;;;;5026018;28;20017;-90
2024/02/27 00:25:36;;;;;;;2.83;1.88;;;10.10;99.90;;;;;;5034970;28;20018;-89
2024/02/27 00:28:02;;;;;;;3.45;1.85;;;10.10;99.90;;;;;;5035086;28;20017;-89
2024/02/27 00:30:28;;;;;;;3.20;2.03;;;10.10;99.90;;;;;;5026022;28;20483;-89
2024/02/27 00:32:53;;;;;;;3.08;1.60;;;10.10;99.90;;;;;;5034085;28;20033;-89
2024/02/27 00:35:19;;;;;;;2.38;1.77;;;10.10;99.90;;;;;;5021710;28;20033;-89
2024/02/27 00:37:44;;;;;;;2.85;1.60;;;10.10;99.90;;;;;;5019828;28;20029;-89
2024/02/27 00:40:12;;;;;;;4.18;1.40;;;10.10;99.90;;;;;;5033980;28;20060;-88
2024/02/27 00:42:38;;;;;;;5.65;2.13;;;10.10;99.90;;;;;;5017315;28;20029;-89
2024/02/27 00:45:04;;;;;;;4.60;2.13;;;10.10;99.90;;;;;;5023414;28;20022;-88
2024/02/27 00:47:30;;;;;;;5.70;2.22;;;10.10;99.90;;;;;;5031219;28;20018;-89
2024/02/27 00:49:55;;;;;;;3.92;2.83;;;10.10;99.90;;;;;;5027483;28;20477;-88
2024/02/27 00:52:21;;;;;;;5.32;2.17;;;10.10;99.90;;;;;;5032088;28;20644;-89
2024/02/27 00:54:47;;;;;;;2.72;1.77;;;10.10;99.90;;;;;;5035756;28;20026;-90
2024/02/27 00:57:13;;;;;;;4.35;2.17;;;10.10;99.90;;;;;;5028442;28;20120;-88
2024/02/27 00:59:39;;;;;;;4.78;2.00;;;10.10;99.90;;;;;;5030559;28;20148;-89
2024/02/27 01:02:04;;;;;;;3.53;2.05;;;10.10;99.90;;;;;;5023754;28;20083;-89
2024/02/27 01:04:30;;;;;;;2.08;1.80;;;10.10;99.90;;;;;;5021641;28;20522;-88
2024/02/27 01:06:55;;;;;;;4.22;2.05;;;10.10;99.90;;;;;;5033815;28;20025;-89
2024/02/27 01:09:21;;;;;;;3.67;2.10;;;10.10;99.90;;;;;;5027792;28;20025;-88
2024/02/27 01:11:46;;;;;;;2.97;1.73;;;10.10;99.90;;;;;;5018182;28;20026;-89
2024/02/27 01:14:12;;;;;;;3.60;2.22;;;10.10;99.90;;;;;;5023741;28;20037;-90
2024/02/27 01:16:38;;;;;;;4.55;2.53;;;10.10;99.90;;;;;;5024667;28;20017;-90
2024/02/27 01:19:04;;;;;;;4.97;2.33;;;10.10;99.90;;;;;;5022221;28;20026;-89
2024/02/27 01:21:29;;;;;;;3.58;2.45;;;10.10;99.90;;;;;;5030918;28;20659;-88
2024/02/27 01:23:55;;;;;;;3.30;1.92;;;10.10;99.90;;;;;;5021502;28;20022;-88
2024/02/27 01:26:20;;;;;;;3.03;2.30;;;10.10;99.90;;;;;;5033616;28;20032;-89
2024/02/27 01:28:46;;;;;;;4.05;2.08;;;10.10;99.90;;;;;;5025270;28;20029;-90
2024/02/27 01:31:11;;;;;;;5.95;2.75;;;10.10;99.90;;;;;;5029921;28;20120;-87
2024/02/27 01:33:37;;;;;;;6.90;2.20;;;10.10;99.90;;;;;;5021077;28;20030;-88
2024/02/27 01:36:03;;;;;;;4.85;2.55;;;10.10;99.90;;;;;;5021001;28;20511;-89
2024/02/27 01:38:28;;;;;;;3.42;2.33;;;10.10;99.90;;;;;;5027274;28;20018;-89
2024/02/27 01:40:54;;;;;;;2.67;2.00;;;10.10;99.90;;;;;;5023597;28;20025;-88
2024/02/27 01:43:24;;;;;;;3.97;2.45;;;10.10;99.90;;;;;;5026409;28;20022;-88
2024/02/27 01:45:57;;;;;;;3.58;2.20;;;10.10;99.90;;;;;;5022652;28;20507;-89
2024/02/27 01:48:23;;;;;;;9.15;2.80;;;10.10;99.90;;;;;;5044505;28;20399;-88
2024/02/27 01:50:49;;;;;;;5.95;2.50;;;10.10;99.90;;;;;;5030524;28;20052;-89
2024/02/27 01:53:15;;;;;;;9.63;2.70;;;10.10;99.90;;;;;;5024844;28;20480;-89
2024/02/27 01:55:43;;;;;;;6.15;2.40;;;10.00;99.90;;;;;;5024041;28;20029;-89
2024/02/27 01:58:10;;;;;;;2.95;1.98;;;10.10;99.90;;;;;;5029079;28;20112;-89
2024/02/27 02:00:36;;;;;;;3.88;2.15;;;10.10;99.90;;;;;;5032972;28;20022;-89
2024/02/27 02:03:03;;;;;;;4.25;2.35;;;10.10;99.90;;;;;;5019745;28;20017;-89
2024/02/27 02:05:29;;;;;;;5.32;2.75;;;10.10;99.90;;;;;;5032900;28;20032;-88
2024/02/27 02:07:57;;;;;;;6.03;2.40;;;10.10;99.90;;;;;;5020811;28;20024;-90
2024/02/27 02:10:23;;;;;;;5.00;2.72;;;10.10;99.90;;;;;;5030114;28;20029;-89
2024/02/27 02:12:49;;;;;;;5.93;2.85;;;10.10;99.90;;;;;;5026104;28;20021;-90
2024/02/27 02:15:15;;;;;;;5.75;2.97;;;10.10;99.90;;;;;;5033959;28;20143;-90
2024/02/27 02:17:44;;;;;;;3.22;2.30;;;10.10;99.90;;;;;;5030426;28;20109;-89
2024/02/27 02:20:15;;;;;;;4.38;2.35;;;10.10;99.90;;;;;;5022088;28;20136;-90
2024/02/27 02:22:40;;;;;;;5.95;2.28;;;10.10;99.90;;;;;;5041367;28;20044;-91
2024/02/27 02:25:10;;;;;;;3.90;2.22;;;10.10;99.90;;;;;;5015025;28;20534;-90
2024/02/27 02:27:40;;;;;;;4.53;2.40;;;10.10;99.90;;;;;;5015260;28;20022;-91
2024/02/27 02:30:06;;;;;;;3.72;2.20;;;10.10;99.90;;;;;;5014579;28;20308;-91
2024/02/27 02:32:32;;;;;;;3.72;2.35;;;10.10;99.90;;;;;;5022195;28;20032;-89
2024/02/27 02:34:57;;;;;;;11.93;2.85;;;10.10;99.90;;;;;;5025976;28;20033;-90
2024/02/27 02:37:26;;;;;;;6.50;2.50;;;10.10;99.90;;;;;;5027974;28;20041;-89
2024/02/27 02:39:52;;;;;;;8.10;3.05;;;10.10;99.90;;;;;;5018849;28;20108;-88
2024/02/27 02:42:17;;;;;;;6.10;2.55;;;10.10;99.90;;;;;;5023333;28;20076;-89
2024/02/27 02:44:43;;;;;;;7.50;2.95;;;10.10;99.90;;;;;;5035688;28;20403;-89
2024/02/27 02:47:08;;;;;;;5.05;2.97;;;10.10;99.90;;;;;;5028600;28;20488;-89
2024/02/27 02:49:34;;;;;;;6.72;3.17;;;10.00;99.90;;;;;;5022123;28;20025;-89
2024/02/27 02:51:59;;;;;;;5.18;2.47;;;10.10;99.90;;;;;;5031294;28;20029;-89
2024/02/27 02:54:25;;;;;;;6.18;3.00;;;10.10;99.90;;;;;;5024992;28;20030;-88
2024/02/27 02:56:50;;;;;;;6.80;3.15;;;10.10;99.90;;;;;;5022634;28;20029;-90
2024/02/27 02:59:16;;;;;;;5.90;3.63;;;10.10;99.90;;;;;;5021334;28;20022;-89
2024/02/27 03:01:41;;;;;;;7.03;3.08;;;10.10;99.90;;;;;;5019469;28;20025;-89
2024/02/27 03:04:09;;;;;;;8.05;3.42;;;10.10;99.90;;;;;;5021693;28;20550;-89
2024/02/27 03:06:34;;;;;;;6.18;2.97;;;10.10;99.90;;;;;;5038652;28;20368;-90
2024/02/27 03:09:00;;;;;;;7.00;3.53;;;10.10;99.90;;;;;;5037927;28;20028;-89
2024/02/27 03:11:26;;;;;;;5.93;3.72;;;10.10;99.90;;;;;;5031627;28;20029;-89
2024/02/27 03:13:51;;;;;;;6.60;3.38;;;10.10;99.90;;;;;;5029628;28;20022;-89
2024/02/27 03:16:17;;;;;;;8.45;3.63;;;10.00;99.90;;;;;;5025522;28;20022;-89
2024/02/27 03:18:42;;;;;;;4.97;3.33;;;10.10;99.90;;;;;;5031530;28;20100;-88
2024/02/27 03:21:08;;;;;;;6.85;3.30;;;10.00;99.90;;;;;;5023321;28;20496;-88
2024/02/27 03:23:33;;;;;;;11.35;3.92;;;10.10;99.90;;;;;;5018482;28;20022;-88
2024/02/27 03:25:59;;;;;;;6.63;3.47;;;10.10;99.90;;;;;;5021659;28;20026;-89
2024/02/27 03:28:24;;;;;;;8.32;3.38;;;10.10;99.90;;;;;;5018627;28;20071;-89
2024/02/27 03:30:50;;;;;;;9.82;3.78;;;10.10;99.90;;;;;;5027539;28;20021;-89
2024/02/27 03:33:15;;;;;;;5.80;3.40;;;10.10;99.90;;;;;;5019560;28;20369;-89
2024/02/27 03:35:41;;;;;;;8.00;4.05;;;10.10;99.90;;;;;;5030047;28;20506;-89
2024/02/27 03:38:08;;;;;;;6.18;3.25;;;10.10;99.90;;;;;;5012741;28;20022;-90
2024/02/27 03:40:33;;;;;;;8.27;4.50;;;10.00;99.90;;;;;;5031171;28;20017;-88
2024/02/27 03:42:59;;;;;;;10.95;4.60;;;10.00;99.90;;;;;;5042554;28;20589;-90
2024/02/27 03:45:24;;;;;;;7.95;4.05;;;10.00;99.90;;;;;;5017386;28;20487;-88
2024/02/27 03:47:50;;;;;;;10.68;4.63;;;10.00;99.90;;;;;;5029887;28;20038;-90
2024/02/27 03:50:15;;;;;;;7.70;4.20;;;10.00;99.90;;;;;;5027184;28;20442;-88
2024/02/27 03:52:42;;;;;;;8.20;5.07;;;10.00;99.90;;;;;;5025469;28;20025;-89
2024/02/27 03:55:08;;;;;;;10.85;5.30;;;10.00;99.90;;;;;;5024847;28;20026;-89
2024/02/27 03:57:33;;;;;;;11.43;5.50;;;10.00;99.90;;;;;;5013186;28;20179;-88
2024/02/27 03:59:59;;;;;;;15.48;5.07;;;10.00;99.90;;;;;;5019095;28;20018;-89
2024/02/27 04:02:25;;;;;;;9.63;4.82;;;10.00;99.90;;;;;;5024428;28;20021;-88
2024/02/27 04:04:50;;;;;;;9.05;5.53;;;10.00;99.90;;;;;;5029976;28;20030;-89
2024/02/27 04:07:16;;;;;;;11.50;4.85;;;10.00;99.90;;;;;;5022368;28;20476;-89
2024/02/27 04:09:41;;;;;;;9.55;4.30;;;10.00;99.90;;;;;;5018692;28;20029;-89
2024/02/27 04:12:07;;;;;;;13.70;5.72;;;10.00;99.90;;;;;;5023614;28;20515;-89
2024/02/27 04:14:33;;;;;;;14.70;5.57;;;10.00;99.90;;;;;;5031847;28;20021;-89
2024/02/27 04:16:59;;;;;;;13.43;5.82;;;10.00;99.90;;;;;;5026588;28;20076;-88
2024/02/27 04:19:25;;;;;;;12.15;5.55;;;10.00;99.90;;;;;;5031141;28;20049;-89
2024/02/27 04:21:50;;;;;;;11.07;5.10;;;10.00;99.90;;;;;;5026718;28;20057;-88
2024/02/27 04:24:16;;;;;;;13.00;5.10;;;10.00;99.90;;;;;;5018987;28;20101;-89
2024/02/27 04:26:42;;;;;;;14.60;5.97;;;10.00;99.90;;;;;;5011408;28;20029;-88
2024/02/27 04:29:08;;;;;;;16.20;6.40;;;10.00;99.90;;;;;;5025176;28;20029;-89
2024/02/27 04:31:34;;;;;;;15.32;5.78;;;10.00;99.90;;;;;;5027702;28;20079;-89
2024/02/27 04:34:00;;;;;;;14.50;6.40;;;10.00;99.90;;;;;;5028654;28;20021;-89
2024/02/27 04:36:25;;;;;;;10.82;5.57;;;10.00;99.90;;;;;;5027987;28;20020;-89
2024/02/27 04:38:51;;;;;;;19.63;6.43;;;9.90;99.90;;;;;;5038800;28;20373;-88
2024/02/27 04:41:17;;;;;;;9.93;5.82;;;10.00;99.90;;;;;;5011637;28;20053;-89
2024/02/27 04:43:42;;;;;;;10.73;5.72;;;10.00;99.90;;;;;;5023159;28;20049;-89
2024/02/27 04:46:08;;;;;;;14.07;6.43;;;10.00;99.90;;;;;;5016162;28;20480;-88
2024/02/27 04:48:34;;;;;;;12.82;6.15;;;10.00;99.90;;;;;;5024415;28;20486;-89
2024/02/27 04:51:00;;;;;;;14.98;6.93;;;9.90;99.90;;;;;;5017161;28;20038;-90
2024/02/27 04:53:25;;;;;;;11.77;6.28;;;10.00;99.90;;;;;;5011927;28;20033;-89
2024/02/27 04:55:51;;;;;;;16.17;6.57;;;10.00;99.90;;;;;;5028797;28;20029;-90
2024/02/27 04:58:16;;;;;;;15.45;7.47;;;10.00;99.90;;;;;;5022804;28;20063;-89
2024/02/27 05:00:42;;;;;;;16.52;7.97;;;10.00;99.90;;;;;;5022444;28;20022;-89
2024/02/27 05:03:08;;;;;;;13.85;6.72;;;10.00;99.90;;;;;;5016800;28;20017;-89
2024/02/27 05:05:35;;;;;;;14.60;7.13;;;10.00;99.90;;;;;;5028155;28;20048;-89
2024/02/27 05:08:01;;;;;;;14.60;7.13;;;10.00;99.90;;;;;;5033531;28;20056;-88
2024/02/27 05:10:27;;;;;;;18.63;7.80;;;10.00;99.90;;;;;;5020807;28;20022;-88
2024/02/27 05:12:52;;;;;;;17.42;7.72;;;9.90;99.90;;;;;;5027762;28;20025;-88
2024/02/27 05:15:18;;;;;;;16.38;7.60;;;9.90;99.90;;;;;;5034020;28;20033;-89
2024/02/27 05:17:43;;;;;;;15.30;6.70;;;9.90;99.90;;;;;;5024800;28;20391;-88
2024/02/27 05:20:11;;;;;;;18.50;8.80;;;9.90;99.90;;;;;;5019184;28;20026;-89
2024/02/27 05:22:36;;;;;;;20.08;8.43;;;10.00;99.90;;;;;;5029214;28;20025;-88
2024/02/27 05:25:02;;;;;;;15.75;7.03;;;9.90;99.90;;;;;;5023342;28;20286;-89
2024/02/27 05:27:27;;;;;;;16.42;7.57;;;9.90;99.90;;;;;;5033542;28;20041;-88
2024/02/27 05:29:53;;;;;;;18.52;7.53;;;10.00;99.90;;;;;;5024309;28;20100;-88
2024/02/27 05:32:19;;;;;;;16.83;7.90;;;9.90;99.90;;;;;;5021971;28;20022;-89
2024/02/27 05:34:45;;;;;;;17.38;9.23;;;10.00;99.90;;;;;;5019789;28;20022;-90
2024/02/27 05:37:10;;;;;;;15.77;7.80;;;10.00;99.90;;;;;;5028142;28;20032;-89
2024/02/27 05:39:36;;;;;;;17.63;7.68;;;10.00;99.90;;;;;;5020053;28;20072;-89
2024/02/27 05:42:02;;;;;;;17.40;8.30;;;9.90;99.90;;;;;;5021271;28;20021;-89
2024/02/27 05:44:27;;;;;;;15.15;7.53;;;10.00;99.90;;;;;;5027889;28;20471;-90
2024/02/27 05:46:53;;;;;;;17.27;8.32;;;9.90;99.90;;;;;;5029319;28;20029;-88
2024/02/27 05:49:18;;;;;;;18.48;7.75;;;10.00;99.90;;;;;;5028102;28;20510;-89
2024/02/27 05:51:44;;;;;;;20.25;8.82;;;10.00;99.90;;;;;;5018288;28;20035;-89
2024/02/27 05:54:09;;;;;;;16.48;8.52;;;10.00;99.90;;;;;;5032096;28;20109;-89
2024/02/27 05:56:35;;;;;;;22.58;8.68;;;9.90;99.90;;;;;;5023874;28;20014;-89
2024/02/27 05:59:01;;;;;;;18.15;8.95;;;10.00;99.90;;;;;;5023055;28;20083;-89
2024/02/27 06:01:27;;;;;;;20.00;8.38;;;10.00;99.90;;;;;;5020962;28;20025;-89
2024/02/27 06:03:52;;;;;;;17.27;8.40;;;9.90;99.90;;;;;;5014077;28;20404;-88
2024/02/27 06:06:18;;;;;;;18.10;8.98;;;9.90;99.90;;;;;;5019404;28;20059;-89
2024/02/27 06:08:43;;;;;;;17.85;8.05;;;10.00;99.90;;;;;;5021338;28;20034;-90
2024/02/27 06:11:09;;;;;;;18.70;8.73;;;9.90;99.90;;;;;;5016825;28;20483;-88
2024/02/27 06:13:35;;;;;;;17.90;8.27;;;9.90;99.90;;;;;;5023711;28;20029;-89
2024/02/27 06:16:00;;;;;;;17.20;7.90;;;9.90;99.90;;;;;;5021715;28;20030;-89
2024/02/27 06:18:26;;;;;;;17.75;8.70;;;9.90;99.90;;;;;;5029582;28;20080;-89
2024/02/27 06:23:35;;;;;;;18.50;8.50;;;9.90;99.90;;;;;;5017495;28;20069;-89
2024/02/27 06:26:01;;;;;;;26.13;9.50;;;9.90;99.90;;;;;;5022620;28;20034;-90
2024/02/27 06:28:26;;;;;;;18.33;8.90;;;9.90;99.90;;;;;;5025046;28;20021;-90
2024/02/27 06:30:52;;;;;;;18.17;8.70;;;9.90;99.90;;;;;;5031199;28;20022;-90
2024/02/27 06:33:18;;;;;;;18.10;9.27;;;9.90;99.90;;;;;;5021796;28;20483;-89
2024/02/27 06:35:45;;;;;;;20.98;9.48;;;9.90;99.90;;;;;;5032593;28;20134;-91
2024/02/27 06:38:11;;;;;;;23.50;10.18;;;9.90;99.90;;;;;;5021912;28;20084;-89
2024/02/27 06:40:36;;;;;;;22.35;9.60;;;9.90;99.90;;;;;;5018921;28;20431;-87
2024/02/27 06:43:03;;;;;;;19.45;8.93;;;9.90;99.90;;;;;;5028604;28;20483;-88
2024/02/27 06:45:28;;;;;;;15.25;8.45;;;9.90;99.90;;;;;;5019491;28;20053;-88
2024/02/27 06:47:54;;;;;;;21.27;8.40;;;10.00;99.90;;;;;;5031707;28;20534;-88
2024/02/27 06:50:19;;;;;;;23.60;9.38;;;9.90;99.90;;;;;;5026426;28;20075;-89
2024/02/27 06:52:45;;;;;;;20.30;9.05;;;9.90;99.90;;;;;;5025644;28;20022;-88
2024/02/27 06:55:10;;;;;;;18.35;9.00;;;10.00;99.90;;;;;;5029603;28;20496;-90
2024/02/27 06:57:36;;;;;;;19.33;8.32;;;9.90;99.90;;;;;;5017592;28;20032;-89
2024/02/27 07:00:04;;;;;;;20.52;8.50;;;9.90;99.90;;;;;;5024788;28;20085;-89
2024/02/27 07:02:30;;;;;;;15.82;8.27;;;10.00;99.90;;;;;;5019045;28;20076;-89
2024/02/27 07:04:55;;;;;;;20.75;8.85;;;9.90;99.90;;;;;;5026593;28;20022;-89
2024/02/27 07:07:21;;;;;;;15.48;7.95;;;10.00;99.90;;;;;;5018520;28;20025;-89
2024/02/27 07:09:46;;;;;;;21.27;8.52;;;9.90;99.90;;;;;;5023119;28;20026;-89
2024/02/27 07:12:12;;;;;;;21.23;9.35;;;9.90;99.90;;;;;;5020515;28;20033;-89
2024/02/27 07:14:41;;;;;;;23.60;8.60;;;10.00;99.90;;;;;;5025047;28;20036;-89
2024/02/27 07:17:08;;;;;;;15.77;8.50;;;10.00;99.90;;;;;;5030251;28;20033;-89
2024/02/27 07:19:33;;;;;;;14.85;7.55;;;10.00;99.90;;;;;;5020683;28;20018;-88
2024/02/27 07:21:59;;;;;;;15.27;7.28;;;9.90;99.90;;;;;;5030507;28;20047;-90
2024/02/27 07:24:24;;;;;;;19.00;8.82;;;10.00;99.90;;;;;;5022696;28;20074;-89
2024/02/27 07:26:50;;;;;;;16.70;8.52;;;9.90;99.90;;;;;;5027895;28;20168;-89
2024/02/27 07:29:16;;;;;;;15.90;8.98;;;10.00;99.90;;;;;;5033413;28;20033;-89
2024/02/27 07:31:43;;;;;;;18.83;8.38;;;10.00;99.90;;;;;;5014279;28;20030;-88
2024/02/27 07:34:11;;;;;;;20.27;9.15;;;9.90;99.90;;;;;;5027117;28;20111;-87
2024/02/27 07:36:36;;;;;;;19.45;8.38;;;10.00;99.90;;;;;;5021280;28;20109;-89
2024/02/27 07:39:02;;;;;;;17.38;8.18;;;10.00;99.90;;;;;;5031107;28;20167;-90
2024/02/27 07:41:28;;;;;;;21.30;9.18;;;10.00;99.90;;;;;;5023467;28;20538;-89
2024/02/27 07:43:53;;;;;;;19.45;8.23;;;9.90;99.90;;;;;;5017993;28;20112;-89
2024/02/27 07:46:19;;;;;;;20.90;7.88;;;10.00;99.90;;;;;;5023255;28;20045;-89
2024/02/27 07:48:45;;;;;;;22.33;8.18;;;10.00;99.90;;;;;;5022258;28;20055;-89
2024/02/27 07:51:43;;;;;;;20.95;8.77;;;10.00;99.90;;;;;;5028907;28;20033;-88
2024/02/27 07:54:09;;;;;;;18.90;8.40;;;10.00;99.90;;;;;;4991324;28;20082;-88
2024/02/27 07:56:35;;;;;;;15.43;8.18;;;10.00;99.90;;;;;;4993791;28;20095;-89
2024/02/27 07:59:01;;;;;;;28.30;8.73;;;10.00;99.90;;;;;;5010016;28;20539;-89
2024/02/27 08:01:27;;;;;;;15.75;8.40;;;10.00;99.90;;;;;;5002348;28;20026;-89
2024/02/27 08:03:53;;;;;;;18.13;8.38;;;10.00;99.90;;;;;;4986334;28;20071;-88
2024/02/27 08:06:19;;;;;;;18.83;7.70;;;10.00;99.90;;;;;;4984859;28;20056;-89
2024/02/27 08:08:45;;;;;;;18.48;8.77;;;10.00;99.90;;;;;;4993268;28;20026;-89
2024/02/27 08:11:10;;;;;;;19.50;8.82;;;10.00;99.90;;;;;;5009698;28;20419;-88
2024/02/27 08:13:36;;;;;;;18.40;9.25;;;10.00;99.90;;;;;;4987808;28;20026;-88
2024/02/27 08:16:02;;;;;;;17.88;8.25;;;10.00;99.90;;;;;;5009505;28;20057;-89
2024/02/27 08:18:27;;;;;;;19.38;9.10;;;10.00;99.90;;;;;;4993456;28;20071;-89
2024/02/27 08:20:53;;;;;;;18.58;9.15;;;10.00;99.90;;;;;;5010003;28;20400;-89
2024/02/27 08:23:19;;;;;;;17.00;8.60;;;10.00;99.90;;;;;;4998408;28;20037;-89
2024/02/27 08:25:44;;;;;;;17.98;9.00;;;10.00;99.90;;;;;;4994942;28;20037;-89
2024/02/27 08:28:10;;;;;;;20.60;8.90;;;10.00;99.90;;;;;;4993554;28;20026;-89
2024/02/27 08:30:36;;;;;;;20.67;9.50;;;10.00;99.90;;;;;;5019030;28;20077;-88
2024/02/27 08:33:03;;;;;;;23.77;9.13;;;10.00;99.90;;;;;;5014748;28;20026;-89
2024/02/27 08:35:29;;;;;;;19.30;8.73;;;10.00;99.90;;;;;;5024633;28;20061;-89
2024/02/27 08:37:55;;;;;;;21.10;10.27;;;10.00;99.90;;;;;;5019710;28;20103;-88
2024/02/27 08:40:21;;;;;;;18.05;9.00;;;10.10;99.90;;;;;;5021647;28;20492;-89
2024/02/27 08:42:46;;;;;;;22.52;9.48;;;10.00;99.90;;;;;;5028683;28;20029;-89
2024/02/27 08:45:12;;;;;;;24.50;9.77;;;10.10;99.90;;;;;;5032429;28;20056;-88
2024/02/27 08:47:37;;;;;;;22.60;8.90;;;10.10;99.90;;;;;;5029172;28;20260;-89
2024/02/27 08:50:04;;;;;;;20.40;9.88;;;10.10;99.90;;;;;;5034379;28;20026;-88
2024/02/27 08:52:30;;;;;;;24.30;9.98;;;10.10;99.90;;;;;;5022807;28;20125;-89
2024/02/27 08:54:55;;;;;;;20.15;8.77;;;10.10;99.90;;;;;;5019957;28;20112;-88
2024/02/27 08:57:21;;;;;;;23.48;10.80;;;10.10;99.90;;;;;;5022276;28;20071;-89
2024/02/27 08:59:47;;;;;;;21.52;9.82;;;10.10;99.90;;;;;;5025686;28;20025;-89
2024/02/27 09:02:14;;;;;;;22.38;9.43;;;10.10;99.90;;;;;;5023908;28;20030;-89
2024/02/27 09:04:39;;;;;;;24.50;9.80;;;10.10;99.90;;;;;;5026765;28;20022;-89
2024/02/27 09:07:05;;;;;;;24.17;11.20;;;10.10;99.90;;;;;;5017965;28;20129;-89
2024/02/27 09:09:30;;;;;;;21.80;9.90;;;10.10;99.90;;;;;;5034153;28;20497;-89
2024/02/27 09:11:57;;;;;;;22.90;9.50;;;10.10;99.90;;;;;;5030096;28;20021;-88
2024/02/27 09:14:23;;;;;;;21.92;10.88;;;10.20;99.90;;;;;;5029720;28;20526;-88
2024/02/27 09:16:48;;;;;;;20.35;9.43;;;10.20;99.90;;;;;;5018605;28;20033;-89
2024/02/27 09:19:14;;;;;;;28.50;11.07;;;10.30;99.90;;;;;;5036826;28;20038;-88
2024/02/27 09:21:41;;;;;;;21.52;10.60;;;10.30;99.90;;;;;;5022597;28;20018;-89
2024/02/27 09:24:07;;;;;;;20.75;9.32;;;10.20;99.90;;;;;;5019611;28;20079;-88
2024/02/27 09:26:32;;;;;;;25.00;10.68;;;10.20;99.90;;;;;;5026832;28;20013;-90
2024/02/27 09:28:58;;;;;;;20.27;10.45;;;10.20;99.90;;;;;;5022360;28;20029;-88
2024/02/27 09:31:24;;;;;;;20.75;10.80;;;10.20;99.90;;;;;;5026512;28;20494;-90
2024/02/27 09:33:49;;;;;;;21.35;10.75;;;10.20;99.90;;;;;;5026058;28;20021;-88
2024/02/27 09:36:15;;;;;;;25.00;11.02;;;10.20;99.90;;;;;;5022866;28;20017;-89
2024/02/27 09:38:41;;;;;;;25.20;10.32;;;10.20;99.90;;;;;;5020406;28;20022;-88
2024/02/27 09:41:12;;;;;;;20.48;10.15;;;10.20;99.90;;;;;;5026919;28;20075;-89
2024/02/27 09:43:43;;;;;;;18.52;9.65;;;10.20;99.90;;;;;;5022264;28;20021;-88
2024/02/27 09:46:10;;;;;;;21.30;10.77;;;10.20;99.90;;;;;;5034643;28;20395;-89
2024/02/27 09:48:43;;;;;;;24.60;10.68;;;10.20;99.90;;;;;;5015829;28;20025;-88
2024/02/27 09:51:10;;;;;;;22.23;9.52;;;10.20;99.90;;;;;;5029593;28;20033;-89
2024/02/27 09:53:36;;;;;;;24.85;10.13;;;10.20;99.90;;;;;;5025212;28;20024;-90
2024/02/27 09:56:03;;;;;;;23.20;10.30;;;10.20;99.90;;;;;;5032750;28;20030;-88
2024/02/27 09:58:29;;;;;;;21.90;10.45;;;10.20;99.90;;;;;;5026068;28;20184;-89
2024/02/27 10:00:58;;;;;;;22.45;10.73;;;10.20;99.90;;;;;;5014609;28;20104;-89
2024/02/27 10:03:24;;;;;;;20.48;10.40;;;10.20;99.90;;;;;;5019795;28;20100;-88
2024/02/27 10:05:50;;;;;;;22.15;10.35;;;10.20;99.90;;;;;;5014411;28;20017;-89
2024/02/27 10:08:22;;;;;;;21.75;11.73;;;10.20;99.90;;;;;;5017880;28;20494;-89
2024/02/27 10:10:49;;;;;;;24.23;10.98;;;10.20;99.90;;;;;;5031356;28;20040;-89
2024/02/27 10:13:14;;;;;;;22.70;11.77;;;10.20;99.90;;;;;;5026588;28;20021;-89
2024/02/27 10:15:40;;;;;;;22.55;11.30;;;10.20;99.90;;;;;;5037427;28;20021;-89
2024/02/27 10:18:07;;;;;;;23.50;10.65;;;10.20;99.90;;;;;;5026775;28;20050;-88
2024/02/27 10:20:33;;;;;;;28.58;11.57;;;10.20;99.90;;;;;;5021168;28;20092;-89
2024/02/27 10:22:59;;;;;;;23.00;12.07;;;10.30;99.90;;;;;;5020782;28;20068;-88
2024/02/27 10:25:27;;;;;;;23.48;11.48;;;10.30;99.90;;;;;;5029746;28;20538;-89
2024/02/27 10:27:53;;;;;;;19.25;9.60;;;10.30;99.90;;;;;;5026703;28;20052;-89
2024/02/27 10:30:20;;;;;;;24.80;10.80;;;10.50;99.90;;;;;;5022755;28;20415;-89
2024/02/27 10:32:46;;;;;;;22.58;10.65;;;10.70;99.90;;;;;;5017192;28;20033;-89
2024/02/27 10:35:13;;;;;;;24.65;11.32;;;10.80;99.90;;;;;;5020442;28;20033;-89
2024/02/27 10:37:39;;;;;;;20.73;10.70;;;11.00;99.90;;;;;;5031900;28;20499;-88
2024/02/27 10:40:07;;;;;;;24.85;11.27;;;11.10;99.90;;;;;;5024449;28;20032;-89
2024/02/27 10:42:32;;;;;;;20.65;10.73;;;11.10;99.90;;;;;;5032099;28;20026;-90
2024/02/27 10:44:58;;;;;;;24.45;11.68;;;11.10;99.90;;;;;;5029744;28;20500;-88
2024/02/27 10:47:27;;;;;;;26.80;11.10;;;11.00;99.90;;;;;;5018671;28;20054;-90
2024/02/27 10:49:53;;;;;;;26.50;12.82;;;10.90;99.90;;;;;;5022142;28;20041;-89
2024/02/27 10:52:25;;;;;;;27.48;12.25;;;10.90;99.90;;;;;;5020983;28;20039;-89
2024/02/27 10:54:52;;;;;;;22.23;10.80;;;11.00;99.90;;;;;;5018634;28;20021;-90
2024/02/27 10:57:17;;;;;;;23.10;9.98;;;10.90;99.90;;;;;;5026962;28;20079;-89
2024/02/27 10:59:45;;;;;;;23.15;11.75;;;10.80;99.90;;;;;;5032359;28;20021;-89
2024/02/27 11:02:20;;;;;;;24.92;12.68;;;10.80;99.90;;;;;;5031799;28;20120;-88
2024/02/27 11:04:47;;;;;;;24.25;11.48;;;10.70;99.90;;;;;;5029088;28;20033;-89
2024/02/27 11:07:16;;;;;;;26.13;11.00;;;10.60;99.90;;;;;;5031698;28;20471;-89
2024/02/27 11:09:44;;;;;;;23.70;11.23;;;10.60;99.90;;;;;;5023163;28;20125;-89
2024/02/27 11:12:12;;;;;;;23.85;11.50;;;10.60;99.90;;;;;;5030442;28;20125;-89
2024/02/27 11:14:45;;;;;;;24.92;10.57;;;10.60;99.90;;;;;;5037730;28;20065;-89
2024/02/27 11:17:18;;;;;;;24.00;10.85;;;10.60;99.90;;;;;;5026346;28;20029;-88
2024/02/27 11:19:48;;;;;;;23.30;11.57;;;10.60;99.90;;;;;;5023728;28;20487;-89
2024/02/27 11:22:26;;;;;;;25.00;11.00;;;10.60;99.90;;;;;;5019315;28;20447;-89
2024/02/27 11:24:51;;;;;;;23.80;11.23;;;10.60;99.90;;;;;;5026034;28;20021;-89
2024/02/27 11:27:22;;;;;;;25.17;11.90;;;10.60;99.90;;;;;;5016843;28;20026;-89
2024/02/27 11:29:50;;;;;;;24.05;11.65;;;10.60;99.90;;;;;;5020788;28;20022;-87
2024/02/27 11:32:17;;;;;;;24.50;11.85;;;10.60;99.90;;;;;;5020605;28;20025;-89
2024/02/27 11:34:42;;;;;;;24.42;11.80;;;10.60;99.90;;;;;;5019656;28;20037;-89
2024/02/27 11:37:18;;;;;;;25.88;11.77;;;10.70;99.90;;;;;;5027055;28;20049;-89
2024/02/27 11:39:44;;;;;;;23.38;11.65;;;10.70;99.90;;;;;;5019853;28;20052;-88
2024/02/27 11:42:26;;;;;;;21.27;10.63;;;10.70;99.90;;;;;;5016634;28;20057;-89
2024/02/27 11:45:12;;;;;;;21.02;11.55;;;10.60;99.90;;;;;;5026304;28;20488;-89
2024/02/27 11:47:42;;;;;;;22.63;11.10;;;10.60;99.90;;;;;;5016143;28;20447;-89
2024/02/27 11:50:12;;;;;;;22.63;10.75;;;10.60;99.90;;;;;;5019855;28;20072;-90
2024/02/27 11:52:42;;;;;;;20.77;10.52;;;10.60;99.90;;;;;;5028534;28;20040;-89
2024/02/27 11:55:09;;;;;;;20.70;11.27;;;10.60;99.90;;;;;;5022708;28;20080;-89
2024/02/27 11:57:36;;;;;;;21.77;11.52;;;10.60;99.90;;;;;;5016128;28;20060;-89
2024/02/27 12:00:09;;;;;;;18.98;10.75;;;10.70;99.90;;;;;;5024930;28;20056;-88
2024/02/27 12:02:38;;;;;;;18.58;9.98;;;10.70;99.90;;;;;;5028506;28;20032;-89
2024/02/27 12:05:05;;;;;;;22.25;11.45;;;10.80;99.90;;;;;;5026289;28;20022;-90
2024/02/27 12:07:34;;;;;;;21.30;11.82;;;10.90;99.90;;;;;;5032785;28;20090;-89
2024/02/27 12:10:08;;;;;;;22.20;11.73;;;10.90;99.90;;;;;;5027755;28;20030;-89
2024/02/27 12:12:36;;;;;;;23.80;11.25;;;11.00;99.90;;;;;;5016356;28;20104;-89
2024/02/27 12:15:02;;;;;;;22.75;11.30;;;11.00;99.90;;;;;;5024751;28;20026;-88
2024/02/27 12:17:28;;;;;;;19.23;11.18;;;11.10;99.90;;;;;;5019189;28;20025;-89
2024/02/27 12:19:54;;;;;;;21.60;11.35;;;11.10;99.90;;;;;;5028852;28;20076;-89
2024/02/27 12:22:20;;;;;;;25.33;12.02;;;11.00;99.90;;;;;;5034899;28;20026;-89
2024/02/27 12:24:45;;;;;;;21.15;11.75;;;11.00;99.90;;;;;;5034948;28;20029;-90
2024/02/27 12:27:14;;;;;;;22.98;11.60;;;10.90;99.90;;;;;;5021892;28;20033;-89
2024/02/27 12:29:40;;;;;;;23.50;11.57;;;10.90;99.90;;;;;;5024034;28;20025;-89
2024/02/27 12:32:06;;;;;;;25.17;12.40;;;10.90;99.90;;;;;;5018929;28;20025;-89
2024/02/27 12:34:32;;;;;;;20.05;11.98;;;10.90;99.90;;;;;;5022214;28;20087;-89
2024/02/27 12:36:59;;;;;;;18.10;10.23;;;10.90;99.90;;;;;;5018379;28;20507;-89